This is the latest recevied weather packets stored in our database for station/object N0OQA. If no packets are shown the sender has not sent any weather packets the latest 1 day(s).
| Time | Temp. | Humidity | Pressure | Rain* | Wind** | Luminosity | Snow |
|---|---|---|---|---|---|---|---|
| 1836274773 | 18.33° C | 100% | 1017.5 hPa | 9.65 mm | 0.89 m/s, 152° | - | - |
| 1836274473 | 18.33° C | 100% | 1017.5 hPa | 9.65 mm | 1.34 m/s, 146° | - | - |
| 1836274324 | 17.78° C | 100% | 1017.4 hPa | 9.65 mm | 1.79 m/s, 146° | - | - |
| 1836273873 | 18.33° C | 100% | 1017.4 hPa | 9.65 mm | 1.79 m/s, 217° | - | - |
| 1778044327 | 2.22° C | 67% | 1016.1 hPa | 0 mm | 1.79 m/s, 315° | - | - |
| 1778044027 | 2.22° C | 66% | 1016 hPa | 0 mm | 1.34 m/s, 295° | - | - |
| 1778043426 | 2.78° C | 65% | 1016 hPa | 0 mm | 2.68 m/s, 325° | - | - |
| 1777978537 | 2.22° C | 74% | 1010.6 hPa | 0 mm | 4.02 m/s, 315° | - | - |
| 1777977936 | 2.22° C | 73% | 1010.5 hPa | 0 mm | 4.02 m/s, 301° | - | - |
| 1777977336 | 2.78° C | 73% | 1010.3 hPa | 0 mm | 4.02 m/s, 287° | - | - |
| 1777975536 | 2.78° C | 74% | 1010.4 hPa | 0 mm | 4.47 m/s, 319° | - | - |
| 1777975234 | 2.78° C | 74% | 1010.5 hPa | 0 mm | 4.47 m/s, 314° | - | - |
| 1777973432 | 3.33° C | 72% | 1010.3 hPa | 0 mm | 4.02 m/s, 295° | - | - |
| 1777972231 | 3.33° C | 72% | 1010 hPa | 0 mm | 3.58 m/s, 307° | - | - |
| 1777971931 | 3.33° C | 72% | 1009.9 hPa | 0 mm | 3.58 m/s, 352° | - | - |
| 1777971030 | 3.89° C | 70% | 1009.7 hPa | 0 mm | 4.47 m/s, 281° | - | - |
| 1777970730 | 3.89° C | 70% | 1009.6 hPa | 0 mm | 3.58 m/s, 293° | - | - |
| 1777969528 | 3.89° C | 69% | 1009.5 hPa | 0 mm | 4.47 m/s, 315° | - | - |
| 1777969228 | 3.89° C | 69% | 1009.5 hPa | 0 mm | 4.02 m/s, 311° | - | - |
| 1777968928 | 3.89° C | 68% | 1009.4 hPa | 0 mm | 3.58 m/s, 318° | - | - |
| 1777966525 | 4.44° C | 65% | 1009.3 hPa | 0 mm | 3.13 m/s, 290° | - | - |
| 1777963823 | 5° C | 63% | 1009.2 hPa | 0 mm | 2.68 m/s, 281° | - | - |
| 1777962021 | 5.56° C | 61% | 1009.1 hPa | 0 mm | 3.13 m/s, 285° | - | - |
* Rain since midnight (hover to see other rain measurements)
** Current wind speed in m/s (hover to see current wind gust speed)